createdAt,value
2019-05-05T00:00:56.671Z,75.90
2019-05-05T00:05:24.619Z,75.90
2019-05-05T00:09:30.472Z,76.10
2019-05-05T00:13:42.132Z,76.00
2019-05-05T00:17:46.691Z,76.00
2019-05-05T00:21:51.249Z,76.40
2019-05-05T00:25:55.856Z,76.20
2019-05-05T00:30:00.447Z,76.20
2019-05-05T00:34:57.188Z,75.50
2019-05-05T00:42:17.537Z,75.60
2019-05-05T00:46:27.920Z,76.40
2019-05-05T00:54:42.148Z,75.60
2019-05-05T00:58:55.340Z,76.10
2019-05-05T01:05:14.798Z,75.60
2019-05-05T01:09:21.472Z,76.30
2019-05-05T01:13:26.033Z,76.20
2019-05-05T01:17:30.591Z,76.20
2019-05-05T01:26:31.115Z,75.70
2019-05-05T01:30:37.797Z,76.40
2019-05-05T01:38:01.946Z,75.40
2019-05-05T01:43:49.024Z,75.50
2019-05-05T01:47:54.567Z,76.10
2019-05-05T01:52:27.548Z,75.50
2019-05-05T02:06:38.662Z,75.90
2019-05-05T02:10:45.188Z,76.40
2019-05-05T02:23:17.151Z,76.00
2019-05-05T02:27:21.744Z,76.70
2019-05-05T02:34:49.141Z,76.00
2019-05-05T03:25:44.123Z,76.70
2019-05-05T03:29:48.819Z,77.40
2019-05-05T03:36:24.528Z,76.70
2019-05-05T03:41:46.616Z,76.50
2019-05-05T03:46:09.995Z,76.60
2019-05-05T03:50:14.872Z,77.20
2019-05-05T03:54:20.527Z,76.90
2019-05-05T03:58:25.463Z,77.00
2019-05-05T04:02:49.047Z,77.10
2019-05-05T04:06:54.587Z,77.10
2019-05-05T04:11:10.514Z,76.40
2019-05-05T04:15:15.680Z,77.20
2019-05-05T04:21:36.051Z,76.40
2019-05-05T04:29:35.163Z,76.70
2019-05-05T04:35:16.524Z,77.80
2019-05-05T04:55:24.522Z,77.10
2019-05-05T04:59:29.188Z,78.30
2019-05-05T05:04:03.604Z,76.30
2019-05-05T05:08:07.928Z,75.30
2019-05-05T05:12:14.517Z,75.00
2019-05-05T05:16:18.690Z,73.30
2019-05-05T05:24:28.069Z,72.40
2019-05-05T05:28:34.189Z,72.70
2019-05-05T05:32:39.910Z,73.40
2019-05-05T05:36:44.684Z,74.40
2019-05-05T05:40:57.989Z,75.00
2019-05-05T05:45:27.266Z,74.50
2019-05-05T05:49:51.536Z,75.20
2019-05-05T05:53:56.092Z,76.20
2019-05-05T05:58:00.636Z,75.50
2019-05-05T06:02:11.568Z,76.70
2019-05-05T06:06:11.344Z,76.20
2019-05-05T06:10:24.226Z,75.60
2019-05-05T06:14:22.119Z,76.20
2019-05-05T06:18:26.675Z,77.00
2019-05-05T06:22:31.663Z,77.30
2019-05-05T06:26:36.843Z,77.50
2019-05-05T06:30:41.415Z,77.20
2019-05-05T06:34:45.959Z,77.70
2019-05-05T06:38:50.507Z,77.70
2019-05-05T06:43:06.429Z,79.60
2019-05-05T06:47:16.589Z,86.20
2019-05-05T06:51:21.136Z,86.40
2019-05-05T06:55:25.696Z,85.10
2019-05-05T06:59:30.247Z,79.50
2019-05-05T07:03:34.890Z,77.40
2019-05-05T07:07:39.436Z,74.40
2019-05-05T07:11:43.988Z,72.40
2019-05-05T07:15:48.591Z,71.60
2019-05-05T07:19:54.353Z,70.10
2019-05-05T07:23:59.018Z,66.80
2019-05-05T07:28:04.258Z,67.00
2019-05-05T07:32:08.968Z,66.20
2019-05-05T07:36:36.254Z,66.00
2019-05-05T07:41:41.280Z,64.70
2019-05-05T07:45:45.828Z,65.70
2019-05-05T07:53:28.419Z,61.80
2019-05-05T07:57:34.198Z,58.70
2019-05-05T08:04:10.724Z,58.20
2019-05-05T08:08:15.261Z,59.80
2019-05-05T08:12:19.815Z,61.40
2019-05-05T08:16:49.307Z,61.50
2019-05-05T08:20:56.821Z,62.60
2019-05-05T08:25:36.171Z,64.50
2019-05-05T08:29:46.723Z,64.60
2019-05-05T08:33:51.272Z,65.40
2019-05-05T08:37:55.821Z,63.90
2019-05-05T08:42:00.345Z,65.00
2019-05-05T08:46:05.060Z,64.50
2019-05-05T08:50:09.780Z,64.60
2019-05-05T08:54:14.464Z,65.90
2019-05-05T08:58:19.056Z,65.70
2019-05-05T09:02:24.023Z,65.00
2019-05-05T09:06:28.754Z,65.60
2019-05-05T09:10:34.339Z,66.20
2019-05-05T09:14:39.044Z,67.20
2019-05-05T09:19:05.463Z,68.50
2019-05-05T09:23:10.035Z,69.00
2019-05-05T09:27:29.087Z,68.30
2019-05-05T09:31:34.399Z,68.60
2019-05-05T09:35:39.037Z,69.30
2019-05-05T09:39:43.853Z,69.90
2019-05-05T09:43:48.556Z,70.40
2019-05-05T09:47:53.858Z,70.60
2019-05-05T09:51:58.500Z,71.30
2019-05-05T09:56:04.060Z,71.50
2019-05-05T10:04:15.440Z,70.90
2019-05-05T10:08:19.955Z,70.90
2019-05-05T10:12:24.504Z,71.70
2019-05-05T10:16:29.081Z,72.60
2019-05-05T10:20:36.517Z,70.50
2019-05-05T10:24:47.645Z,71.60
2019-05-05T10:28:53.693Z,72.10
2019-05-05T10:35:31.082Z,71.10
2019-05-05T10:39:40.789Z,71.60
2019-05-05T10:43:45.411Z,70.80
2019-05-05T10:47:50.287Z,70.80
2019-05-05T10:51:56.128Z,69.40
2019-05-05T10:56:00.748Z,70.40
2019-05-05T11:00:12.393Z,69.30
2019-05-05T11:04:13.558Z,69.50
2019-05-05T11:08:18.156Z,69.90
2019-05-05T11:12:24.573Z,70.10
2019-05-05T11:16:28.915Z,71.10
2019-05-05T11:20:34.174Z,71.40
2019-05-05T11:24:38.800Z,71.30
2019-05-05T11:28:44.535Z,72.20
2019-05-05T11:33:06.791Z,72.20
2019-05-05T11:37:14.552Z,71.00
2019-05-05T11:41:19.103Z,72.40
2019-05-05T11:45:26.669Z,72.50
2019-05-05T11:49:31.231Z,71.00
2019-05-05T11:53:35.788Z,71.10
2019-05-05T11:57:40.343Z,69.90
2019-05-05T12:01:44.892Z,71.10
2019-05-05T12:05:49.396Z,68.80
2019-05-05T12:09:56.890Z,70.80
2019-05-05T12:14:03.863Z,71.20
2019-05-05T12:18:08.424Z,71.10
2019-05-05T12:22:13.048Z,71.30
2019-05-05T12:26:28.872Z,70.50
2019-05-05T12:30:33.864Z,70.20
2019-05-05T12:34:38.500Z,70.90
2019-05-05T12:38:44.621Z,71.50
2019-05-05T12:42:49.172Z,70.20
2019-05-05T12:47:27.760Z,71.60
2019-05-05T12:51:34.139Z,70.70
2019-05-05T12:55:41.757Z,70.40
2019-05-05T12:59:44.687Z,70.70
2019-05-05T13:03:49.303Z,68.60
2019-05-05T13:07:53.949Z,68.10
2019-05-05T13:11:58.473Z,68.00
2019-05-05T13:16:04.262Z,68.90
2019-05-05T13:20:30.681Z,67.60
2019-05-05T13:25:00.099Z,67.40
2019-05-05T13:29:04.813Z,64.30
2019-05-05T13:33:09.413Z,65.70
2019-05-05T13:37:14.216Z,66.10
2019-05-05T13:41:18.928Z,64.10
2019-05-05T13:45:46.028Z,65.30
2019-05-05T13:49:50.597Z,65.60
2019-05-05T13:53:55.173Z,63.40
2019-05-05T13:57:59.717Z,64.80
2019-05-05T14:02:04.294Z,64.60
2019-05-05T14:06:08.856Z,64.60
2019-05-05T14:10:14.524Z,67.70
2019-05-05T14:14:19.096Z,63.70
2019-05-05T14:18:23.663Z,64.20
2019-05-05T14:22:28.237Z,65.50
2019-05-05T14:26:35.159Z,65.80
2019-05-05T14:30:46.091Z,66.70
2019-05-05T14:34:56.619Z,66.30
2019-05-05T14:39:01.729Z,66.30
2019-05-05T14:43:06.267Z,66.00
2019-05-05T14:47:10.833Z,66.60
2019-05-05T14:51:15.389Z,65.90
2019-05-05T14:55:22.302Z,66.50
2019-05-05T14:59:26.167Z,67.30
2019-05-05T15:03:30.719Z,66.90
2019-05-05T15:07:41.024Z,66.60
2019-05-05T15:12:03.630Z,64.90
2019-05-05T15:16:09.984Z,66.10
2019-05-05T15:20:14.424Z,66.00
2019-05-05T15:24:18.961Z,67.20
2019-05-05T15:28:24.493Z,67.60
2019-05-05T15:32:29.369Z,68.10
2019-05-05T15:36:33.954Z,68.00
2019-05-05T15:40:38.518Z,68.60
2019-05-05T15:44:43.964Z,68.60
2019-05-05T15:48:48.624Z,68.30
2019-05-05T15:52:54.500Z,67.80
2019-05-05T15:57:05.522Z,67.90
2019-05-05T16:01:05.586Z,65.00
2019-05-05T16:05:10.450Z,64.70
2019-05-05T16:09:15.374Z,63.70
2019-05-05T16:13:19.981Z,65.30
2019-05-05T16:17:36.984Z,65.00
2019-05-05T16:21:54.414Z,65.20
2019-05-05T16:25:59.095Z,63.70
2019-05-05T16:30:05.723Z,65.80
2019-05-05T16:34:09.969Z,66.10
2019-05-05T16:38:15.016Z,66.40
2019-05-05T16:42:19.761Z,66.50
2019-05-05T16:46:24.350Z,66.50
2019-05-05T16:50:28.873Z,66.00
2019-05-05T16:54:41.490Z,65.30
2019-05-05T16:58:46.040Z,60.80
2019-05-05T17:02:50.611Z,62.60
2019-05-05T17:06:55.167Z,62.50
2019-05-05T17:10:59.689Z,62.80
2019-05-05T17:15:29.757Z,63.00
2019-05-05T17:19:44.405Z,63.00
2019-05-05T17:23:49.039Z,63.00
2019-05-05T17:27:54.573Z,63.10
2019-05-05T17:31:59.269Z,63.30
2019-05-05T17:36:04.597Z,63.50
2019-05-05T17:40:17.440Z,64.80
2019-05-05T17:44:49.732Z,64.10
2019-05-05T17:49:14.113Z,64.90
2019-05-05T17:53:40.590Z,64.30
2019-05-05T17:57:45.157Z,63.80
2019-05-05T18:01:49.701Z,62.80
2019-05-05T18:06:08.901Z,63.50
2019-05-05T18:10:27.553Z,63.70
2019-05-05T18:14:33.525Z,64.00
2019-05-05T18:18:38.229Z,64.40
2019-05-05T18:22:43.506Z,64.90
2019-05-05T18:26:48.180Z,65.40
2019-05-05T18:30:53.985Z,65.60
2019-05-05T18:34:58.687Z,65.80
2019-05-05T18:39:04.486Z,65.90
2019-05-05T18:43:14.040Z,66.00
2019-05-05T18:47:21.801Z,66.20
2019-05-05T18:51:26.375Z,66.10
2019-05-05T18:55:30.915Z,66.20
2019-05-05T18:59:35.477Z,66.20
2019-05-05T19:03:57.855Z,66.30
2019-05-05T19:08:15.147Z,66.40
2019-05-05T19:12:19.700Z,66.40
2019-05-05T19:16:24.248Z,66.40
2019-05-05T19:20:44.877Z,66.40
2019-05-05T19:24:49.450Z,66.60
2019-05-05T19:28:54.733Z,65.90
2019-05-05T19:32:59.588Z,65.90
2019-05-05T19:37:04.158Z,66.80
2019-05-05T19:41:08.736Z,66.00
2019-05-05T19:45:13.474Z,66.10
2019-05-05T19:49:18.876Z,66.00
2019-05-05T19:53:24.733Z,66.00
2019-05-05T19:57:29.501Z,66.10
2019-05-05T20:01:37.517Z,66.10
2019-05-05T20:05:43.070Z,66.30
2019-05-05T20:09:46.474Z,66.50
2019-05-05T20:14:04.733Z,66.60
2019-05-05T20:17:57.242Z,66.80
2019-05-05T20:22:01.787Z,67.80
2019-05-05T20:26:06.333Z,66.90
2019-05-05T20:30:10.944Z,67.00
2019-05-05T20:34:29.147Z,67.20
2019-05-05T20:38:40.512Z,67.10
2019-05-05T20:42:45.229Z,67.30
2019-05-05T20:46:49.796Z,67.30
2019-05-05T20:50:54.701Z,68.00
2019-05-05T20:54:59.306Z,68.10
2019-05-05T20:59:04.258Z,68.00
2019-05-05T21:03:08.882Z,67.00
2019-05-05T21:07:14.041Z,68.00
2019-05-05T21:11:18.736Z,67.20
2019-05-05T21:15:24.701Z,68.00
2019-05-05T21:19:29.477Z,67.90
2019-05-05T21:23:43.821Z,67.80
2019-05-05T21:27:48.540Z,67.90
2019-05-05T21:33:27.981Z,67.30
2019-05-05T21:37:34.054Z,67.20
2019-05-05T21:41:38.780Z,68.20
2019-05-05T21:45:44.477Z,68.20
2019-05-05T21:49:49.084Z,67.40
2019-05-05T21:54:13.961Z,67.70
2019-05-05T21:58:23.268Z,68.60
2019-05-05T22:02:28.545Z,67.80
2019-05-05T22:06:33.652Z,67.50
2019-05-05T22:10:38.396Z,68.30
2019-05-05T22:14:43.953Z,68.00
2019-05-05T22:18:48.716Z,67.90
2019-05-05T22:22:54.250Z,68.70
2019-05-05T22:26:58.968Z,71.10
2019-05-05T22:31:04.643Z,69.80
2019-05-05T22:35:09.721Z,69.50
2019-05-05T22:39:16.831Z,69.60
2019-05-05T22:43:20.753Z,69.50
2019-05-05T22:47:25.315Z,69.40
2019-05-05T22:51:30.043Z,69.40
2019-05-05T22:55:34.729Z,69.50
2019-05-05T22:59:39.273Z,69.60
2019-05-05T23:04:08.549Z,69.60
2019-05-05T23:08:13.570Z,69.80
2019-05-05T23:12:18.292Z,69.80
2019-05-05T23:16:34.053Z,69.70
2019-05-05T23:20:50.544Z,69.90
2019-05-05T23:25:00.066Z,70.00
2019-05-05T23:29:04.636Z,70.20
2019-05-05T23:33:09.227Z,70.30
2019-05-05T23:37:13.805Z,69.60
2019-05-05T23:41:18.340Z,70.60
2019-05-05T23:45:24.714Z,70.60
2019-05-05T23:49:29.291Z,71.10
2019-05-05T23:53:34.460Z,71.00
2019-05-05T23:57:39.234Z,71.00
